sensor_id;sensor_type;location;lat;lon;timestamp;temperature;humidity
20722;DHT22;10522;52.198;9.890;2022-10-04T00:01:28;10.40;99.90
20722;DHT22;10522;52.198;9.890;2022-10-04T00:09:46;10.40;99.90
20722;DHT22;10522;52.198;9.890;2022-10-04T00:12:30;10.50;99.90
20722;DHT22;10522;52.198;9.890;2022-10-04T00:15:01;10.60;99.90
20722;DHT22;10522;52.198;9.890;2022-10-04T00:17:29;10.60;99.90
20722;DHT22;10522;52.198;9.890;2022-10-04T00:20:09;10.60;99.90
20722;DHT22;10522;52.198;9.890;2022-10-04T00:26:00;10.70;99.90
20722;DHT22;10522;52.198;9.890;2022-10-04T00:31:08;10.80;99.90
20722;DHT22;10522;52.198;9.890;2022-10-04T00:33:49;10.80;99.90
20722;DHT22;10522;52.198;9.890;2022-10-04T00:44:28;11.00;99.90
20722;DHT22;10522;52.198;9.890;2022-10-04T00:46:56;11.00;99.90
20722;DHT22;10522;52.198;9.890;2022-10-04T00:49:30;11.00;99.90
20722;DHT22;10522;52.198;9.890;2022-10-04T00:52:04;11.00;99.90
20722;DHT22;10522;52.198;9.890;2022-10-04T00:54:37;10.90;99.90
20722;DHT22;10522;52.198;9.890;2022-10-04T00:57:17;10.90;99.90
20722;DHT22;10522;52.198;9.890;2022-10-04T00:59:52;11.00;99.90
20722;DHT22;10522;52.198;9.890;2022-10-04T01:02:27;11.10;99.90
20722;DHT22;10522;52.198;9.890;2022-10-04T01:05:02;11.10;99.90
20722;DHT22;10522;52.198;9.890;2022-10-04T01:07:35;11.20;99.90
20722;DHT22;10522;52.198;9.890;2022-10-04T01:10:27;11.10;99.90
20722;DHT22;10522;52.198;9.890;2022-10-04T01:13:10;11.20;99.90
20722;DHT22;10522;52.198;9.890;2022-10-04T01:15:52;11.20;99.90
20722;DHT22;10522;52.198;9.890;2022-10-04T01:20:48;11.20;99.90
20722;DHT22;10522;52.198;9.890;2022-10-04T01:23:41;11.30;99.90
20722;DHT22;10522;52.198;9.890;2022-10-04T01:26:33;11.20;99.90
20722;DHT22;10522;52.198;9.890;2022-10-04T01:29:16;11.30;99.90
20722;DHT22;10522;52.198;9.890;2022-10-04T01:31:46;11.30;99.90
20722;DHT22;10522;52.198;9.890;2022-10-04T01:34:14;11.20;99.90
20722;DHT22;10522;52.198;9.890;2022-10-04T01:36:41;11.20;99.90
20722;DHT22;10522;52.198;9.890;2022-10-04T01:39:07;11.10;99.90
20722;DHT22;10522;52.198;9.890;2022-10-04T01:41:47;11.20;99.90
20722;DHT22;10522;52.198;9.890;2022-10-04T01:46:51;11.20;99.90
20722;DHT22;10522;52.198;9.890;2022-10-04T01:49:23;11.30;99.90
20722;DHT22;10522;52.198;9.890;2022-10-04T01:52:09;11.30;99.90
20722;DHT22;10522;52.198;9.890;2022-10-04T01:54:50;11.40;99.90
20722;DHT22;10522;52.198;9.890;2022-10-04T01:57:22;11.40;99.90
20722;DHT22;10522;52.198;9.890;2022-10-04T01:59:50;11.50;99.90
20722;DHT22;10522;52.198;9.890;2022-10-04T02:02:53;11.40;99.90
20722;DHT22;10522;52.198;9.890;2022-10-04T02:05:35;11.50;99.90
20722;DHT22;10522;52.198;9.890;2022-10-04T02:08:10;11.40;99.90
20722;DHT22;10522;52.198;9.890;2022-10-04T02:10:38;11.40;99.90
20722;DHT22;10522;52.198;9.890;2022-10-04T02:13:15;11.40;99.90
20722;DHT22;10522;52.198;9.890;2022-10-04T02:15:43;11.30;99.90
20722;DHT22;10522;52.198;9.890;2022-10-04T02:18:13;11.20;99.90
20722;DHT22;10522;52.198;9.890;2022-10-04T02:20:40;11.20;99.90
20722;DHT22;10522;52.198;9.890;2022-10-04T02:23:07;11.20;99.90
20722;DHT22;10522;52.198;9.890;2022-10-04T02:25:35;11.20;99.90
20722;DHT22;10522;52.198;9.890;2022-10-04T02:28:02;11.20;99.90
20722;DHT22;10522;52.198;9.890;2022-10-04T02:30:28;11.20;99.90
20722;DHT22;10522;52.198;9.890;2022-10-04T02:32:59;11.20;99.90
20722;DHT22;10522;52.198;9.890;2022-10-04T02:35:43;11.30;99.90
20722;DHT22;10522;52.198;9.890;2022-10-04T02:40:46;11.40;99.90
20722;DHT22;10522;52.198;9.890;2022-10-04T02:51:32;11.40;99.90
20722;DHT22;10522;52.198;9.890;2022-10-04T02:56:44;11.50;99.90
20722;DHT22;10522;52.198;9.890;2022-10-04T02:59:15;11.40;99.90
20722;DHT22;10522;52.198;9.890;2022-10-04T03:01:48;11.40;99.90
20722;DHT22;10522;52.198;9.890;2022-10-04T03:04:15;11.40;99.90
20722;DHT22;10522;52.198;9.890;2022-10-04T03:06:43;11.40;99.90
20722;DHT22;10522;52.198;9.890;2022-10-04T03:09:10;11.40;99.90
20722;DHT22;10522;52.198;9.890;2022-10-04T03:11:38;11.40;99.90
20722;DHT22;10522;52.198;9.890;2022-10-04T03:14:20;11.30;99.90
20722;DHT22;10522;52.198;9.890;2022-10-04T03:16:49;11.30;99.90
20722;DHT22;10522;52.198;9.890;2022-10-04T03:19:18;11.30;99.90
20722;DHT22;10522;52.198;9.890;2022-10-04T03:21:47;11.30;99.90
20722;DHT22;10522;52.198;9.890;2022-10-04T03:24:26;11.40;99.90
20722;DHT22;10522;52.198;9.890;2022-10-04T03:26:54;11.40;99.90
20722;DHT22;10522;52.198;9.890;2022-10-04T03:29:23;11.50;99.90
20722;DHT22;10522;52.198;9.890;2022-10-04T03:31:51;11.50;99.90
20722;DHT22;10522;52.198;9.890;2022-10-04T03:34:39;11.50;99.90
20722;DHT22;10522;52.198;9.890;2022-10-04T03:37:08;11.50;99.90
20722;DHT22;10522;52.198;9.890;2022-10-04T03:39:58;11.40;99.90
20722;DHT22;10522;52.198;9.890;2022-10-04T03:42:29;11.40;99.90
20722;DHT22;10522;52.198;9.890;2022-10-04T03:45:00;11.30;99.90
20722;DHT22;10522;52.198;9.890;2022-10-04T03:47:31;11.30;99.90
20722;DHT22;10522;52.198;9.890;2022-10-04T03:50:02;11.30;99.90
20722;DHT22;10522;52.198;9.890;2022-10-04T03:52:34;11.20;99.90
20722;DHT22;10522;52.198;9.890;2022-10-04T03:55:05;11.20;99.90
20722;DHT22;10522;52.198;9.890;2022-10-04T03:57:32;11.30;99.90
20722;DHT22;10522;52.198;9.890;2022-10-04T04:00:00;11.20;99.90
20722;DHT22;10522;52.198;9.890;2022-10-04T04:02:31;11.20;99.90
20722;DHT22;10522;52.198;9.890;2022-10-04T04:05:15;11.20;99.90
20722;DHT22;10522;52.198;9.890;2022-10-04T04:07:48;11.20;99.90
20722;DHT22;10522;52.198;9.890;2022-10-04T04:10:37;11.20;99.90
20722;DHT22;10522;52.198;9.890;2022-10-04T04:15:35;11.30;99.90
20722;DHT22;10522;52.198;9.890;2022-10-04T04:18:04;11.30;99.90
20722;DHT22;10522;52.198;9.890;2022-10-04T04:20:36;11.30;99.90
20722;DHT22;10522;52.198;9.890;2022-10-04T04:25:45;11.30;99.90
20722;DHT22;10522;52.198;9.890;2022-10-04T04:28:30;11.20;99.90
20722;DHT22;10522;52.198;9.890;2022-10-04T04:31:05;11.20;99.90
20722;DHT22;10522;52.198;9.890;2022-10-04T04:33:41;11.10;99.90
20722;DHT22;10522;52.198;9.890;2022-10-04T04:36:11;11.20;99.90
20722;DHT22;10522;52.198;9.890;2022-10-04T04:38:37;11.10;99.90
20722;DHT22;10522;52.198;9.890;2022-10-04T04:41:24;11.10;99.90
20722;DHT22;10522;52.198;9.890;2022-10-04T04:43:51;11.00;99.90
20722;DHT22;10522;52.198;9.890;2022-10-04T04:46:17;10.90;99.90
20722;DHT22;10522;52.198;9.890;2022-10-04T04:48:44;10.90;99.90
20722;DHT22;10522;52.198;9.890;2022-10-04T04:51:21;10.80;99.90
20722;DHT22;10522;52.198;9.890;2022-10-04T04:53:48;10.80;99.90
20722;DHT22;10522;52.198;9.890;2022-10-04T04:56:18;10.80;99.90
20722;DHT22;10522;52.198;9.890;2022-10-04T04:58:46;10.70;99.90
20722;DHT22;10522;52.198;9.890;2022-10-04T05:06:35;10.70;99.90
20722;DHT22;10522;52.198;9.890;2022-10-04T05:09:03;10.50;99.90
20722;DHT22;10522;52.198;9.890;2022-10-04T05:11:39;10.40;99.90
20722;DHT22;10522;52.198;9.890;2022-10-04T05:14:08;10.40;99.90
20722;DHT22;10522;52.198;9.890;2022-10-04T05:16:52;10.50;99.90
20722;DHT22;10522;52.198;9.890;2022-10-04T05:19:21;10.60;99.90
20722;DHT22;10522;52.198;9.890;2022-10-04T05:21:51;10.50;99.90
20722;DHT22;10522;52.198;9.890;2022-10-04T05:24:33;10.50;99.90
20722;DHT22;10522;52.198;9.890;2022-10-04T05:35:19;10.40;99.90
20722;DHT22;10522;52.198;9.890;2022-10-04T05:38:04;10.40;99.90
20722;DHT22;10522;52.198;9.890;2022-10-04T05:40:38;10.40;99.90
20722;DHT22;10522;52.198;9.890;2022-10-04T05:48:35;10.40;99.90
20722;DHT22;10522;52.198;9.890;2022-10-04T05:53:50;10.30;99.90
20722;DHT22;10522;52.198;9.890;2022-10-04T05:59:24;10.20;99.90
20722;DHT22;10522;52.198;9.890;2022-10-04T06:04:59;10.20;99.90
20722;DHT22;10522;52.198;9.890;2022-10-04T06:07:40;10.30;99.90
20722;DHT22;10522;52.198;9.890;2022-10-04T06:12:59;10.20;99.90
20722;DHT22;10522;52.198;9.890;2022-10-04T06:18:24;10.30;99.90
20722;DHT22;10522;52.198;9.890;2022-10-04T06:21:15;10.30;99.90
20722;DHT22;10522;52.198;9.890;2022-10-04T06:23:55;10.40;99.90
20722;DHT22;10522;52.198;9.890;2022-10-04T06:34:44;10.50;99.90
20722;DHT22;10522;52.198;9.890;2022-10-04T07:00:31;10.90;99.90
20722;DHT22;10522;52.198;9.890;2022-10-04T07:13:47;11.30;99.90
20722;DHT22;10522;52.198;9.890;2022-10-04T07:25:18;11.60;99.90
20722;DHT22;10522;52.198;9.890;2022-10-04T07:28:02;11.70;99.90
20722;DHT22;10522;52.198;9.890;2022-10-04T07:31:02;11.80;99.90
20722;DHT22;10522;52.198;9.890;2022-10-04T07:34:24;11.80;99.90
20722;DHT22;10522;52.198;9.890;2022-10-04T07:36:56;11.90;99.90
20722;DHT22;10522;52.198;9.890;2022-10-04T07:39:53;12.10;99.90
20722;DHT22;10522;52.198;9.890;2022-10-04T07:42:45;12.30;99.90
20722;DHT22;10522;52.198;9.890;2022-10-04T07:45:20;12.40;99.90
20722;DHT22;10522;52.198;9.890;2022-10-04T07:47:46;12.60;99.90
20722;DHT22;10522;52.198;9.890;2022-10-04T07:50:19;12.70;99.90
20722;DHT22;10522;52.198;9.890;2022-10-04T07:52:53;12.80;99.90
20722;DHT22;10522;52.198;9.890;2022-10-04T07:55:28;12.80;99.90
20722;DHT22;10522;52.198;9.890;2022-10-04T07:58:01;13.00;99.90
20722;DHT22;10522;52.198;9.890;2022-10-04T08:04:19;13.20;99.90
20722;DHT22;10522;52.198;9.890;2022-10-04T08:07:16;13.30;99.90
20722;DHT22;10522;52.198;9.890;2022-10-04T08:13:35;13.40;99.90
20722;DHT22;10522;52.198;9.890;2022-10-04T08:25:26;13.40;99.90
20722;DHT22;10522;52.198;9.890;2022-10-04T08:54:12;14.20;99.90
20722;DHT22;10522;52.198;9.890;2022-10-04T09:13:31;14.80;99.90
20722;DHT22;10522;52.198;9.890;2022-10-04T09:16:17;14.80;99.90
20722;DHT22;10522;52.198;9.890;2022-10-04T09:19:10;15.00;99.90
20722;DHT22;10522;52.198;9.890;2022-10-04T09:27:27;15.40;99.90
20722;DHT22;10522;52.198;9.890;2022-10-04T09:30:16;15.40;99.90
20722;DHT22;10522;52.198;9.890;2022-10-04T09:41:49;15.80;99.90
20722;DHT22;10522;52.198;9.890;2022-10-04T09:52:54;15.80;99.90
20722;DHT22;10522;52.198;9.890;2022-10-04T10:00:47;16.00;99.90
20722;DHT22;10522;52.198;9.890;2022-10-04T10:03:42;16.20;99.90
20722;DHT22;10522;52.198;9.890;2022-10-04T10:12:37;16.30;99.90
20722;DHT22;10522;52.198;9.890;2022-10-04T10:30:23;17.60;99.90
20722;DHT22;10522;52.198;9.890;2022-10-04T10:35:45;16.90;99.90
20722;DHT22;10522;52.198;9.890;2022-10-04T10:38:23;16.50;99.90
20722;DHT22;10522;52.198;9.890;2022-10-04T10:43:30;16.40;99.90
20722;DHT22;10522;52.198;9.890;2022-10-04T10:46:25;16.80;99.90
20722;DHT22;10522;52.198;9.890;2022-10-04T11:00:22;17.40;99.90
20722;DHT22;10522;52.198;9.890;2022-10-04T11:16:50;17.60;99.90
20722;DHT22;10522;52.198;9.890;2022-10-04T11:39:52;18.10;99.90
20722;DHT22;10522;52.198;9.890;2022-10-04T11:42:36;18.20;99.90
20722;DHT22;10522;52.198;9.890;2022-10-04T12:05:57;18.40;99.90
20722;DHT22;10522;52.198;9.890;2022-10-04T12:08:36;18.30;99.90
20722;DHT22;10522;52.198;9.890;2022-10-04T12:14:34;18.30;99.90
20722;DHT22;10522;52.198;9.890;2022-10-04T12:31:24;18.80;99.90
20722;DHT22;10522;52.198;9.890;2022-10-04T12:45:04;19.00;99.90
20722;DHT22;10522;52.198;9.890;2022-10-04T12:47:44;19.10;99.90
20722;DHT22;10522;52.198;9.890;2022-10-04T13:11:06;19.30;99.90
20722;DHT22;10522;52.198;9.890;2022-10-04T13:17:16;19.40;99.90
20722;DHT22;10522;52.198;9.890;2022-10-04T13:20:19;19.20;99.90
20722;DHT22;10522;52.198;9.890;2022-10-04T13:23:02;19.30;99.90
20722;DHT22;10522;52.198;9.890;2022-10-04T13:28:41;19.50;99.90
20722;DHT22;10522;52.198;9.890;2022-10-04T13:31:18;19.50;99.90
20722;DHT22;10522;52.198;9.890;2022-10-04T13:34:13;19.40;99.90
20722;DHT22;10522;52.198;9.890;2022-10-04T13:44:57;19.20;99.90
20722;DHT22;10522;52.198;9.890;2022-10-04T13:55:52;19.50;99.90
20722;DHT22;10522;52.198;9.890;2022-10-04T13:58:54;19.60;99.90
20722;DHT22;10522;52.198;9.890;2022-10-04T14:32:38;20.10;99.90
20722;DHT22;10522;52.198;9.890;2022-10-04T14:35:15;20.10;99.90
20722;DHT22;10522;52.198;9.890;2022-10-04T14:52:52;19.80;99.90
20722;DHT22;10522;52.198;9.890;2022-10-04T14:56:02;20.00;99.90
20722;DHT22;10522;52.198;9.890;2022-10-04T15:01:24;20.10;99.90
20722;DHT22;10522;52.198;9.890;2022-10-04T15:20:27;22.40;99.90
20722;DHT22;10522;52.198;9.890;2022-10-04T15:25:44;23.30;99.90
20722;DHT22;10522;52.198;9.890;2022-10-04T15:31:24;23.50;99.90
20722;DHT22;10522;52.198;9.890;2022-10-04T15:34:40;23.10;99.90
20722;DHT22;10522;52.198;9.890;2022-10-04T15:39:44;22.20;99.90
20722;DHT22;10522;52.198;9.890;2022-10-04T15:53:20;22.50;99.90
20722;DHT22;10522;52.198;9.890;2022-10-04T16:02:23;21.70;99.90
20722;DHT22;10522;52.198;9.890;2022-10-04T16:11:12;20.40;99.90
20722;DHT22;10522;52.198;9.890;2022-10-04T16:22:33;17.70;99.90
20722;DHT22;10522;52.198;9.890;2022-10-04T16:28:00;16.80;99.90
20722;DHT22;10522;52.198;9.890;2022-10-04T16:33:42;16.20;99.90
20722;DHT22;10522;52.198;9.890;2022-10-04T16:36:17;16.00;99.90
20722;DHT22;10522;52.198;9.890;2022-10-04T16:38:53;15.80;99.90
20722;DHT22;10522;52.198;9.890;2022-10-04T16:41:42;15.70;99.90
20722;DHT22;10522;52.198;9.890;2022-10-04T16:44:33;15.60;99.90
20722;DHT22;10522;52.198;9.890;2022-10-04T16:47:17;15.50;99.90
20722;DHT22;10522;52.198;9.890;2022-10-04T16:49:53;15.40;99.90
20722;DHT22;10522;52.198;9.890;2022-10-04T16:52:34;15.20;99.90
20722;DHT22;10522;52.198;9.890;2022-10-04T16:55:27;15.10;99.90
20722;DHT22;10522;52.198;9.890;2022-10-04T17:03:52;14.90;99.90
20722;DHT22;10522;52.198;9.890;2022-10-04T17:06:33;14.80;99.90
20722;DHT22;10522;52.198;9.890;2022-10-04T17:09:31;14.80;99.90
20722;DHT22;10522;52.198;9.890;2022-10-04T17:12:18;14.60;99.90
20722;DHT22;10522;52.198;9.890;2022-10-04T17:17:34;14.40;99.90
20722;DHT22;10522;52.198;9.890;2022-10-04T17:20:37;14.40;99.90
20722;DHT22;10522;52.198;9.890;2022-10-04T17:29:03;14.20;99.90
20722;DHT22;10522;52.198;9.890;2022-10-04T17:36:58;14.30;99.90
20722;DHT22;10522;52.198;9.890;2022-10-04T17:39:40;14.20;99.90
20722;DHT22;10522;52.198;9.890;2022-10-04T17:42:31;14.30;99.90
20722;DHT22;10522;52.198;9.890;2022-10-04T17:45:30;14.20;99.90
20722;DHT22;10522;52.198;9.890;2022-10-04T17:48:15;14.20;99.90
20722;DHT22;10522;52.198;9.890;2022-10-04T17:54:15;14.10;99.90
20722;DHT22;10522;52.198;9.890;2022-10-04T17:59:37;14.10;99.90
20722;DHT22;10522;52.198;9.890;2022-10-04T18:02:11;14.00;99.90
20722;DHT22;10522;52.198;9.890;2022-10-04T18:04:56;14.00;99.90
20722;DHT22;10522;52.198;9.890;2022-10-04T18:07:54;13.90;99.90
20722;DHT22;10522;52.198;9.890;2022-10-04T18:10:29;13.80;99.90
20722;DHT22;10522;52.198;9.890;2022-10-04T18:13:14;13.80;99.90
20722;DHT22;10522;52.198;9.890;2022-10-04T18:15:50;13.80;99.90
20722;DHT22;10522;52.198;9.890;2022-10-04T18:18:20;13.80;99.90
20722;DHT22;10522;52.198;9.890;2022-10-04T18:23:26;13.80;99.90
20722;DHT22;10522;52.198;9.890;2022-10-04T18:26:13;13.90;99.90
20722;DHT22;10522;52.198;9.890;2022-10-04T18:28:43;13.80;99.90
20722;DHT22;10522;52.198;9.890;2022-10-04T18:34:18;13.90;99.90
20722;DHT22;10522;52.198;9.890;2022-10-04T18:37:18;13.90;99.90
20722;DHT22;10522;52.198;9.890;2022-10-04T18:39:48;14.00;99.90
20722;DHT22;10522;52.198;9.890;2022-10-04T18:42:27;14.00;99.90
20722;DHT22;10522;52.198;9.890;2022-10-04T18:47:48;14.20;99.90
20722;DHT22;10522;52.198;9.890;2022-10-04T18:58:53;14.00;99.90
20722;DHT22;10522;52.198;9.890;2022-10-04T19:02:27;13.90;99.90
20722;DHT22;10522;52.198;9.890;2022-10-04T19:27:28;13.90;99.90
20722;DHT22;10522;52.198;9.890;2022-10-04T19:30:12;13.80;99.90
20722;DHT22;10522;52.198;9.890;2022-10-04T19:43:51;13.90;99.90
20722;DHT22;10522;52.198;9.890;2022-10-04T19:46:39;13.80;99.90
20722;DHT22;10522;52.198;9.890;2022-10-04T19:49:16;13.70;99.90
20722;DHT22;10522;52.198;9.890;2022-10-04T19:51:50;13.50;99.90
20722;DHT22;10522;52.198;9.890;2022-10-04T19:54:29;13.50;99.90
20722;DHT22;10522;52.198;9.890;2022-10-04T19:57:00;13.50;99.90
20722;DHT22;10522;52.198;9.890;2022-10-04T19:59:37;13.50;99.90
20722;DHT22;10522;52.198;9.890;2022-10-04T20:02:12;13.60;99.90
20722;DHT22;10522;52.198;9.890;2022-10-04T20:04:38;13.60;99.90
20722;DHT22;10522;52.198;9.890;2022-10-04T20:12:38;13.50;99.90
20722;DHT22;10522;52.198;9.890;2022-10-04T20:15:18;13.70;99.90
20722;DHT22;10522;52.198;9.890;2022-10-04T20:17:47;13.70;99.90
20722;DHT22;10522;52.198;9.890;2022-10-04T20:23:09;13.80;99.90
20722;DHT22;10522;52.198;9.890;2022-10-04T20:32:06;13.80;99.90
20722;DHT22;10522;52.198;9.890;2022-10-04T20:34:32;13.80;99.90
20722;DHT22;10522;52.198;9.890;2022-10-04T20:37:00;13.80;99.90
20722;DHT22;10522;52.198;9.890;2022-10-04T20:42:37;13.70;99.90
20722;DHT22;10522;52.198;9.890;2022-10-04T20:52:50;13.60;99.90
20722;DHT22;10522;52.198;9.890;2022-10-04T20:55:22;13.50;99.90
20722;DHT22;10522;52.198;9.890;2022-10-04T20:57:52;13.40;99.90
20722;DHT22;10522;52.198;9.890;2022-10-04T21:00:22;13.40;99.90
20722;DHT22;10522;52.198;9.890;2022-10-04T21:03:05;13.40;99.90
20722;DHT22;10522;52.198;9.890;2022-10-04T21:05:31;13.40;99.90
20722;DHT22;10522;52.198;9.890;2022-10-04T21:08:31;13.30;99.90
20722;DHT22;10522;52.198;9.890;2022-10-04T21:11:26;13.50;99.90
20722;DHT22;10522;52.198;9.890;2022-10-04T21:14:30;13.60;99.90
20722;DHT22;10522;52.198;9.890;2022-10-04T21:17:01;13.50;99.90
20722;DHT22;10522;52.198;9.890;2022-10-04T21:21:59;13.50;99.90
20722;DHT22;10522;52.198;9.890;2022-10-04T21:27:23;13.40;99.90
20722;DHT22;10522;52.198;9.890;2022-10-04T21:29:49;13.40;99.90
20722;DHT22;10522;52.198;9.890;2022-10-04T21:32:21;13.40;99.90
20722;DHT22;10522;52.198;9.890;2022-10-04T21:34:46;13.30;99.90
20722;DHT22;10522;52.198;9.890;2022-10-04T21:37:12;13.40;99.90
20722;DHT22;10522;52.198;9.890;2022-10-04T21:39:38;13.40;99.90
20722;DHT22;10522;52.198;9.890;2022-10-04T21:42:04;13.40;99.90
20722;DHT22;10522;52.198;9.890;2022-10-04T21:44:30;13.50;99.90
20722;DHT22;10522;52.198;9.890;2022-10-04T21:46:56;13.50;99.90
20722;DHT22;10522;52.198;9.890;2022-10-04T21:49:21;13.50;99.90
20722;DHT22;10522;52.198;9.890;2022-10-04T21:51:47;13.60;99.90
20722;DHT22;10522;52.198;9.890;2022-10-04T21:54:12;13.60;99.90
20722;DHT22;10522;52.198;9.890;2022-10-04T21:56:38;13.60;99.90
20722;DHT22;10522;52.198;9.890;2022-10-04T21:59:04;13.60;99.90
20722;DHT22;10522;52.198;9.890;2022-10-04T22:01:30;13.60;99.90
20722;DHT22;10522;52.198;9.890;2022-10-04T22:03:55;13.50;99.90
20722;DHT22;10522;52.198;9.890;2022-10-04T22:06:21;13.50;99.90
20722;DHT22;10522;52.198;9.890;2022-10-04T22:08:47;13.50;99.90
20722;DHT22;10522;52.198;9.890;2022-10-04T22:11:13;13.40;99.90
20722;DHT22;10522;52.198;9.890;2022-10-04T22:13:38;13.30;99.90
20722;DHT22;10522;52.198;9.890;2022-10-04T22:16:05;13.30;99.90
20722;DHT22;10522;52.198;9.890;2022-10-04T22:18:31;13.30;99.90
20722;DHT22;10522;52.198;9.890;2022-10-04T22:20:58;13.30;99.90
20722;DHT22;10522;52.198;9.890;2022-10-04T22:23:26;13.20;99.90
20722;DHT22;10522;52.198;9.890;2022-10-04T22:25:53;13.10;99.90
20722;DHT22;10522;52.198;9.890;2022-10-04T22:28:25;13.10;99.90
20722;DHT22;10522;52.198;9.890;2022-10-04T22:30:51;13.00;99.90
20722;DHT22;10522;52.198;9.890;2022-10-04T22:33:33;13.00;99.90
20722;DHT22;10522;52.198;9.890;2022-10-04T22:36:24;13.00;99.90
20722;DHT22;10522;52.198;9.890;2022-10-04T22:38:57;12.90;99.90
20722;DHT22;10522;52.198;9.890;2022-10-04T22:41:33;12.90;99.90
20722;DHT22;10522;52.198;9.890;2022-10-04T22:44:11;12.80;99.90
20722;DHT22;10522;52.198;9.890;2022-10-04T22:46:41;12.70;99.90
20722;DHT22;10522;52.198;9.890;2022-10-04T22:49:16;12.70;99.90
20722;DHT22;10522;52.198;9.890;2022-10-04T22:51:43;12.60;99.90
20722;DHT22;10522;52.198;9.890;2022-10-04T22:54:30;12.50;99.90
20722;DHT22;10522;52.198;9.890;2022-10-04T22:56:57;12.30;99.90
20722;DHT22;10522;52.198;9.890;2022-10-04T22:59:30;12.30;99.90
20722;DHT22;10522;52.198;9.890;2022-10-04T23:01:58;12.20;99.90
20722;DHT22;10522;52.198;9.890;2022-10-04T23:04:25;12.20;99.90
20722;DHT22;10522;52.198;9.890;2022-10-04T23:06:52;12.10;99.90
20722;DHT22;10522;52.198;9.890;2022-10-04T23:09:18;12.10;99.90
20722;DHT22;10522;52.198;9.890;2022-10-04T23:11:44;12.00;99.90
20722;DHT22;10522;52.198;9.890;2022-10-04T23:14:10;12.00;99.90
20722;DHT22;10522;52.198;9.890;2022-10-04T23:16:36;12.10;99.90
20722;DHT22;10522;52.198;9.890;2022-10-04T23:19:16;12.20;99.90
20722;DHT22;10522;52.198;9.890;2022-10-04T23:21:46;12.10;99.90
20722;DHT22;10522;52.198;9.890;2022-10-04T23:24:21;12.10;99.90
20722;DHT22;10522;52.198;9.890;2022-10-04T23:26:51;12.00;99.90
20722;DHT22;10522;52.198;9.890;2022-10-04T23:29:32;11.90;99.90
20722;DHT22;10522;52.198;9.890;2022-10-04T23:32:07;11.70;99.90
20722;DHT22;10522;52.198;9.890;2022-10-04T23:34:38;11.70;99.90
20722;DHT22;10522;52.198;9.890;2022-10-04T23:39:38;11.50;99.90
20722;DHT22;10522;52.198;9.890;2022-10-04T23:42:20;11.50;99.90
20722;DHT22;10522;52.198;9.890;2022-10-04T23:44:48;11.50;99.90
20722;DHT22;10522;52.198;9.890;2022-10-04T23:47:17;11.60;99.90
20722;DHT22;10522;52.198;9.890;2022-10-04T23:49:45;11.70;99.90
20722;DHT22;10522;52.198;9.890;2022-10-04T23:52:23;11.80;99.90
20722;DHT22;10522;52.198;9.890;2022-10-04T23:54:51;11.90;99.90
20722;DHT22;10522;52.198;9.890;2022-10-04T23:57:25;12.00;99.90
20722;DHT22;10522;52.198;9.890;2022-10-04T23:59:52;12.00;99.90
